Sealand Illinois — 9HA3372 — position and weather

sailwx.info

Track history (hours):
 
Tides and Currents Weather Stations Pressure Air Temp Water Temp Dewpoint Dewpoint Depression Visibility Wind Speed Wind Dir Waves Ship Positions

Sealand Illinois

Last reported at 2018-Feb-25 05:16 UTC. Time now 2018-Feb-25 13:53 UTC.
Position N 37°14' W 001°01'.

Length 304 m; draft 13.4 m.

Type: Ship (hazmat cat A). MMSI: 229487000.

Date/timePositionNaut miles runAvg speedWind from/ knotsBaromVisibWave heightAir tempDewpointWater temp
2018-Feb-25 05:16N 37°14' W 001°01'519.3
2018-Feb-25 05:00N 37°18' W 000°56'1019.2
2018-Feb-25 04:30N 37°25' W 000°48'918.7
2018-Feb-25 04:00N 37°31' W 000°39'918.2
2018-Feb-25 03:30N 37°37' W 000°30'918.0
2018-Feb-25 03:00N 37°44' W 000°24'918.0
2018-Feb-25 02:29N 37°52' W 000°18'918.6
2018-Feb-25 02:00N 38°00' W 000°12'8415.2
2018-Feb-24 20:29N 39°24' W 000°15'4 7.6
2018-Feb-24 20:00N 39°26' W 000°19'0 0.3
2018-Feb-24 19:28N 39°26' W 000°20'0 0.0
2018-Feb-24 18:52N 39°26' W 000°20'0 0.0
2018-Feb-24 18:28N 39°26' W 000°20'0 0.0
2018-Feb-24 17:58N 39°26' W 000°20'0 0.0
2018-Feb-24 17:28N 39°26' W 000°20'0 0.0
2018-Feb-24 16:55N 39°26' W 000°20'0 0.0
2018-Feb-24 16:28N 39°26' W 000°20'0 0.0
2018-Feb-24 15:55N 39°26' W 000°20'0 0.0
2018-Feb-24 15:28N 39°26' W 000°20'0 0.0
2018-Feb-24 14:58N 39°26' W 000°20'0 0.0
2018-Feb-24 14:28N 39°26' W 000°20'0 0.0
2018-Feb-24 13:55N 39°26' W 000°20'0 0.0
2018-Feb-24 13:28N 39°26' W 000°20'0 0.0
2018-Feb-24 12:58N 39°26' W 000°20'0 0.0
2018-Feb-24 12:28N 39°26' W 000°20'0 0.0
2018-Feb-24 11:58N 39°26' W 000°20'0 0.0
2018-Feb-24 11:28N 39°26' W 000°20'0 0.0
2018-Feb-24 10:58N 39°26' W 000°20'0 0.0
2018-Feb-24 10:28N 39°26' W 000°20'0 0.0
2018-Feb-24 09:58N 39°26' W 000°20'0 0.0
2018-Feb-24 09:28N 39°26' W 000°20'0 0.0
2018-Feb-24 08:58N 39°26' W 000°20'0 0.0
2018-Feb-24 08:28N 39°26' W 000°20'0 0.0
2018-Feb-24 07:58N 39°26' W 000°20'0 0.0
2018-Feb-24 07:28N 39°26' W 000°20'0 0.0
2018-Feb-24 06:58N 39°26' W 000°20'0 0.0
2018-Feb-24 06:28N 39°26' W 000°20'0 0.0
2018-Feb-24 05:58N 39°26' W 000°20'0 0.0
2018-Feb-24 05:28N 39°26' W 000°20'0 0.0
2018-Feb-24 04:58N 39°26' W 000°20'0 0.0
2018-Feb-24 04:28N 39°26' W 000°20'0 0.0
2018-Feb-24 03:58N 39°26' W 000°20'0 0.0
2018-Feb-24 03:28N 39°26' W 000°20'0 0.0
2018-Feb-24 02:58N 39°26' W 000°20'0 0.0
2018-Feb-24 02:28N 39°26' W 000°20'0 0.0
2018-Feb-24 01:58N 39°26' W 000°20'0 0.0
2018-Feb-24 01:28N 39°26' W 000°20'0 0.0
2018-Feb-24 00:58N 39°26' W 000°20'0 0.0
2018-Feb-24 00:28N 39°26' W 000°20'0 0.8
2018-Feb-24 00:00N 39°26' W 000°19'2 4.5
2018-Feb-23 23:30N 39°25' W 000°16'1 1.3
2018-Feb-23 23:00N 39°25' W 000°15'4 8.2
2018-Feb-23 22:29N 39°25' W 000°10'39415.5
2018-Feb-22 21:02N 43°05' E 007°04'116.5
2018-Feb-22 20:57N 43°06' E 007°06'816.8
2018-Feb-22 20:30N 43°11' E 007°14'817.0
2018-Feb-22 20:00N 43°17' E 007°22'4617.2
2018-Feb-22 17:20N 43°46' E 008°11'617.6
2018-Feb-22 16:59N 43°50' E 008°17'817.4
2018-Feb-22 16:30N 43°57' E 008°25'917.7
2018-Feb-22 16:00N 44°04' E 008°31'918.7
2018-Feb-22 15:30N 44°12' E 008°37'917.4
2018-Feb-22 15:01N 44°21' E 008°42'611.4
2018-Feb-22 14:30N 44°25' E 008°47'1 1.4
2018-Feb-22 13:59N 44°25' E 008°48'0 0.0
2018-Feb-22 13:29N 44°25' E 008°48'0 0.0
2018-Feb-22 12:59N 44°25' E 008°48'0 0.0
2018-Feb-22 12:29N 44°25' E 008°48'0 0.0
2018-Feb-22 11:59N 44°25' E 008°48'0 0.0
2018-Feb-22 11:29N 44°25' E 008°48'0 0.0
2018-Feb-22 10:59N 44°25' E 008°48'0 0.0
2018-Feb-22 10:29N 44°25' E 008°48'0 0.0
2018-Feb-22 09:59N 44°25' E 008°48'0 0.0
2018-Feb-22 09:29N 44°25' E 008°48'0 0.0
2018-Feb-22 08:56N 44°25' E 008°48'0 0.0
2018-Feb-22 08:29N 44°25' E 008°48'0 0.0
2018-Feb-22 07:59N 44°25' E 008°48'0 0.0
2018-Feb-22 07:29N 44°25' E 008°48'0 0.0
2018-Feb-22 06:59N 44°25' E 008°48'0 0.0
2018-Feb-22 06:29N 44°25' E 008°48'0 0.0
2018-Feb-22 05:59N 44°25' E 008°48'0 0.0
2018-Feb-22 05:29N 44°25' E 008°48'0 0.0
2018-Feb-22 04:59N 44°25' E 008°48'0 0.0
2018-Feb-22 04:29N 44°25' E 008°48'0 0.0
2018-Feb-22 03:59N 44°25' E 008°48'0 0.0
2018-Feb-22 03:29N 44°25' E 008°48'0 0.0
2018-Feb-22 02:56N 44°25' E 008°48'0 0.0
2018-Feb-22 02:29N 44°25' E 008°48'0 0.0
2018-Feb-22 01:59N 44°25' E 008°48'0 0.0
2018-Feb-22 01:29N 44°25' E 008°48'0 0.0
2018-Feb-22 00:59N 44°25' E 008°48'0 0.0
2018-Feb-22 00:29N 44°25' E 008°48'0 0.0
2018-Feb-21 23:59N 44°25' E 008°48'0 0.0
2018-Feb-21 23:29N 44°25' E 008°48'0 0.0
2018-Feb-21 22:59N 44°25' E 008°48'0 0.0
2018-Feb-21 22:29N 44°25' E 008°48'0 0.0
2018-Feb-21 21:59N 44°25' E 008°48'0 0.0
2018-Feb-21 21:29N 44°25' E 008°48'0 0.0
2018-Feb-21 20:59N 44°25' E 008°48'0 0.5
2018-Feb-21 20:31N 44°25' E 008°47'3 5.3
2018-Feb-21 20:00N 44°23' E 008°44'3 5.3
2018-Feb-21 19:30N 44°21' E 008°43'3 6.5
2018-Feb-21 19:00N 44°18' E 008°44'3 5.2
2018-Feb-21 18:30N 44°15' E 008°44'1 1.2
2018-Feb-21 18:00N 44°15' E 008°44'1 1.5
2018-Feb-21 17:30N 44°15' E 008°45'1 1.6
2018-Feb-21 17:00N 44°16' E 008°45'1 1.7
2018-Feb-21 16:30N 44°17' E 008°46'1 1.6
2018-Feb-21 16:00N 44°18' E 008°46'1 1.3
2018-Feb-21 15:30N 44°18' E 008°47'3 5.9
2018-Feb-21 15:00N 44°16' E 008°50'611.6
2018-Feb-21 14:30N 44°13' E 008°56'611.9
2018-Feb-21 14:00N 44°08' E 009°01'611.9
2018-Feb-21 13:30N 44°03' E 009°06'612.2
2018-Feb-21 13:00N 43°59' E 009°13'612.4
2018-Feb-21 12:30N 43°55' E 009°20'611.7
2018-Feb-21 12:00N 43°52' E 009°26'611.4
2018-Feb-21 11:30N 43°48' E 009°32'611.4
2018-Feb-21 11:00N 43°45' E 009°39'611.8
2018-Feb-21 10:30N 43°41' E 009°45'611.8
2018-Feb-21 10:00N 43°37' E 009°50'611.6
2018-Feb-21 09:30N 43°33' E 009°56'611.8
2018-Feb-21 09:00N 43°31' E 010°04'511.0
2018-Feb-21 08:30N 43°30' E 010°12'4 8.7
2018-Feb-21 08:00N 43°32' E 010°17'2 4.3
2018-Feb-21 07:30N 43°34' E 010°18'0 0.8
2018-Feb-21 07:00N 43°35' E 010°18'0 0.0
2018-Feb-21 06:30N 43°35' E 010°18'0 0.0
2018-Feb-21 05:54N 43°35' E 010°18'0 0.0
2018-Feb-21 05:30N 43°35' E 010°18'0 0.0
2018-Feb-21 05:00N 43°35' E 010°18'0 0.0
2018-Feb-21 04:27N 43°35' E 010°18'0 0.0
2018-Feb-21 04:00N 43°35' E 010°18'0 0.0
2018-Feb-21 03:30N 43°35' E 010°18'0 0.0
2018-Feb-21 03:00N 43°35' E 010°18'0 0.0
2018-Feb-21 02:30N 43°35' E 010°18'0 0.0
2018-Feb-21 02:00N 43°35' E 010°18'0 0.0
2018-Feb-21 01:30N 43°35' E 010°18'0 0.0
2018-Feb-21 01:00N 43°35' E 010°18'0 0.0
2018-Feb-21 00:30N 43°35' E 010°18'0 0.0
2018-Feb-21 00:00N 43°35' E 010°18'0 0.0
2018-Feb-20 23:30N 43°35' E 010°18'0 0.0
2018-Feb-20 23:00N 43°35' E 010°18'0 0.0
2018-Feb-20 22:30N 43°35' E 010°18'0 0.0
2018-Feb-20 21:54N 43°35' E 010°18'0 0.0
2018-Feb-20 21:27N 43°35' E 010°18'0 0.0
2018-Feb-20 21:00N 43°35' E 010°18'0 0.0
2018-Feb-20 20:30N 43°35' E 010°18'0 0.0
2018-Feb-20 19:54N 43°35' E 010°18'0 0.0
2018-Feb-20 19:27N 43°35' E 010°18'0 0.0
2018-Feb-20 19:00N 43°35' E 010°18'0 0.0
2018-Feb-20 18:30N 43°35' E 010°18'0 0.0
2018-Feb-20 18:00N 43°35' E 010°18'0 0.0
2018-Feb-20 17:30N 43°35' E 010°18'0 0.0
2018-Feb-20 17:00N 43°35' E 010°18'0 0.0
2018-Feb-20 16:30N 43°35' E 010°18'0 0.0
2018-Feb-20 16:00N 43°35' E 010°18'0 0.0
2018-Feb-20 15:30N 43°35' E 010°18'0 0.0
2018-Feb-20 15:00N 43°35' E 010°18'0 0.0
2018-Feb-20 14:27N 43°35' E 010°18'0 0.0
2018-Feb-20 13:57N 43°35' E 010°18'0 0.0
2018-Feb-20 13:30N 43°35' E 010°18'0 0.0
2018-Feb-20 13:00N 43°35' E 010°18'0 0.0
2018-Feb-20 12:30N 43°35' E 010°18'0 0.0
2018-Feb-20 12:00N 43°35' E 010°18'0 0.0
2018-Feb-20 11:30N 43°35' E 010°18'0 0.0
2018-Feb-20 10:54N 43°35' E 010°18'0 0.0
2018-Feb-20 10:30N 43°35' E 010°18'0 0.0
2018-Feb-20 10:00N 43°35' E 010°18'0 0.0
2018-Feb-20 09:30N 43°35' E 010°18'1 2.3
2018-Feb-20 09:00N 43°33' E 010°18'2 4.4
2018-Feb-20 08:30N 43°32' E 010°16'1 2.6
2018-Feb-20 08:00N 43°31' E 010°15'4 8.2
2018-Feb-20 07:30N 43°29' E 010°09'4 7.6
2018-Feb-20 07:00N 43°28' E 010°04'1 1.5
2018-Feb-20 06:30N 43°28' E 010°05'1 1.7
2018-Feb-20 06:00N 43°27' E 010°06'1 1.6
2018-Feb-20 05:30N 43°27' E 010°07'1 1.4
2018-Feb-20 05:00N 43°27' E 010°08'1 1.3
2018-Feb-20 04:30N 43°27' E 010°09'1 1.1
2018-Feb-20 04:00N 43°27' E 010°10'0 1.0
2018-Feb-20 03:30N 43°27' E 010°11'0 0.8
2018-Feb-20 03:00N 43°27' E 010°11'3 5.2
2018-Feb-20 02:30N 43°29' E 010°08'5 9.8
2018-Feb-20 02:00N 43°31' E 010°02'510.3
2018-Feb-20 01:30N 43°33' E 009°55'510.7
2018-Feb-20 01:00N 43°38' E 009°51'611.1
2018-Feb-20 00:30N 43°44' E 009°51'611.1
2018-Feb-20 00:00N 43°49' E 009°52'611.4
2018-Feb-19 23:30N 43°55' E 009°52'612.1
2018-Feb-19 23:00N 44°01' E 009°52'5 9.3
2018-Feb-19 22:30N 44°05' E 009°51'1 2.4
2018-Feb-19 22:00N 44°06' E 009°51'0 0.0
2018-Feb-19 21:21N 44°06' E 009°51'0 0.0
2018-Feb-19 20:51N 44°06' E 009°51'0 0.0
2018-Feb-19 20:30N 44°06' E 009°51'0 0.0
2018-Feb-19 20:00N 44°06' E 009°51'0 0.0
2018-Feb-19 19:30N 44°06' E 009°51'0 0.1
2018-Feb-19 19:00N 44°06' E 009°51'0 0.1
2018-Feb-19 18:30N 44°06' E 009°51'0 0.0
2018-Feb-19 18:00N 44°06' E 009°51'0 0.0
2018-Feb-19 17:30N 44°06' E 009°51'0 0.0
2018-Feb-19 17:00N 44°06' E 009°51'0 0.0
2018-Feb-19 16:30N 44°06' E 009°51'0 0.0
2018-Feb-19 16:00N 44°06' E 009°51'0 0.0
2018-Feb-19 15:30N 44°06' E 009°51'0 0.0
2018-Feb-19 14:57N 44°06' E 009°51'0 0.0
2018-Feb-19 14:30N 44°06' E 009°51'0 0.0
2018-Feb-19 13:57N 44°06' E 009°51'0 0.0
2018-Feb-19 13:30N 44°06' E 009°51'0 0.0
2018-Feb-19 12:57N 44°06' E 009°51'0 0.0
2018-Feb-19 12:30N 44°06' E 009°51'0 0.0
2018-Feb-19 12:00N 44°06' E 009°51'0 0.0
2018-Feb-19 11:30N 44°06' E 009°51'0 0.0
2018-Feb-19 11:00N 44°06' E 009°51'0 0.0
2018-Feb-19 10:30N 44°06' E 009°51'0 0.0
2018-Feb-19 10:00N 44°06' E 009°51'0 0.0
2018-Feb-19 09:30N 44°06' E 009°51'0 0.0
2018-Feb-19 09:00N 44°06' E 009°51'0 0.0
2018-Feb-19 08:24N 44°06' E 009°51'0 0.0
2018-Feb-19 08:00N 44°06' E 009°51'0 0.0
2018-Feb-19 07:30N 44°06' E 009°51'0 0.0
2018-Feb-19 07:00N 44°06' E 009°51'0 0.0
2018-Feb-19 06:30N 44°06' E 009°51'0 0.0
2018-Feb-19 06:00N 44°06' E 009°51'0 0.0
2018-Feb-19 05:30N 44°06' E 009°51'0 0.0
2018-Feb-19 05:00N 44°06' E 009°51'0 0.0
2018-Feb-19 04:30N 44°06' E 009°51'0 0.0
2018-Feb-19 04:00N 44°06' E 009°51'0 0.0
2018-Feb-19 03:27N 44°06' E 009°51'0 0.0
2018-Feb-19 03:00N 44°06' E 009°51'0 0.0
2018-Feb-19 02:30N 44°06' E 009°51'0 0.0
2018-Feb-19 02:00N 44°06' E 009°51'0 0.0
2018-Feb-19 01:30N 44°06' E 009°51'0 0.0
2018-Feb-19 01:00N 44°06' E 009°51'0 0.0
2018-Feb-19 00:30N 44°06' E 009°51'0 0.0
2018-Feb-19 00:00N 44°06' E 009°51'0 0.0
2018-Feb-18 23:30N 44°06' E 009°51'0 0.0
2018-Feb-18 23:00N 44°06' E 009°51'0 0.0
2018-Feb-18 22:30N 44°06' E 009°51'0 0.0
2018-Feb-18 21:57N 44°06' E 009°51'0 0.0
2018-Feb-18 21:30N 44°06' E 009°51'0 0.8
2018-Feb-18 21:00N 44°06' E 009°51'3 6.5
2018-Feb-18 20:30N 44°03' E 009°52'2 3.3
2018-Feb-18 20:00N 44°02' E 009°54'3 5.7
2018-Feb-18 19:30N 43°60' E 009°57'0 0.6
2018-Feb-18 19:00N 44°00' E 009°57'0 0.7
2018-Feb-18 18:30N 44°00' E 009°57'0 0.6
2018-Feb-18 18:00N 44°00' E 009°57'1 2.3
2018-Feb-18 17:30N 43°59' E 009°56'4 7.9
2018-Feb-18 17:00N 43°55' E 009°54'611.3
2018-Feb-18 16:30N 43°50' E 009°51'611.5
2018-Feb-18 16:00N 43°45' E 009°49'612.0
2018-Feb-18 15:30N 43°39' E 009°46'612.0
2018-Feb-18 15:00N 43°33' E 009°45'612.0
2018-Feb-18 14:30N 43°27' E 009°44'612.2
2018-Feb-18 14:00N 43°21' E 009°47'612.1
2018-Feb-18 13:30N 43°16' E 009°51'612.0
2018-Feb-18 13:00N 43°10' E 009°54'612.1
2018-Feb-18 12:30N 43°05' E 009°58'714.8
2018-Feb-18 12:00N 42°58' E 009°59'5217.5
2018-Feb-18 09:02N 42°07' E 010°18'195 7.6
2018-Feb-17 07:21N 40°50' E 014°17'0 0.0
2018-Feb-17 06:54N 40°50' E 014°17'0 0.0
2018-Feb-16 20:45N 40°50' E 014°17'0 0.0
2018-Feb-16 20:18N 40°50' E 014°17'0 0.0
2018-Feb-16 19:51N 40°50' E 014°17'0 0.0
2018-Feb-16 19:21N 40°50' E 014°17'0 0.0
2018-Feb-16 18:51N 40°50' E 014°17'0 0.0
2018-Feb-16 18:30N 40°50' E 014°17'0 0.0
2018-Feb-16 17:51N 40°50' E 014°17'0 0.0
2018-Feb-16 17:21N 40°50' E 014°17'0 0.1
2018-Feb-16 16:55N 40°50' E 014°17'1 1.6
2018-Feb-16 16:30N 40°50' E 014°17'2 3.2
2018-Feb-16 16:01N 40°48' E 014°17'4 7.1
2018-Feb-16 15:30N 40°45' E 014°14'611.7
2018-Feb-16 15:00N 40°40' E 014°11'712.9
2018-Feb-16 14:30N 40°34' E 014°06'1511.9
2018-Feb-16 13:15N 40°21' E 014°14'6212.7
2018-Feb-16 08:20N 39°28' E 014°58'612.7
2018-Feb-16 07:53N 39°24' E 015°03'4812.6
2018-Feb-16 04:05N 38°43' E 015°35'312.7
2018-Feb-16 03:50N 38°41' E 015°37'712.6
2018-Feb-16 03:18N 38°35' E 015°43'412.8
2018-Feb-16 02:57N 38°32' E 015°46'612.7
2018-Feb-16 02:29N 38°28' E 015°52'2 3.8
2018-Feb-16 01:57N 38°27' E 015°54'0 0.0
2018-Feb-16 01:27N 38°27' E 015°54'0 0.0
2018-Feb-15 23:57N 38°27' E 015°54'0 0.0
2018-Feb-15 23:27N 38°27' E 015°54'0 0.0
2018-Feb-15 22:56N 38°27' E 015°54'0 0.0
2018-Feb-15 22:26N 38°27' E 015°54'0 0.0
2018-Feb-15 21:50N 38°27' E 015°54'0 0.0
2018-Feb-15 21:14N 38°27' E 015°54'0 0.1
2018-Feb-15 20:56N 38°27' E 015°54'0 0.0
2018-Feb-15 20:26N 38°27' E 015°54'0 0.0
2018-Feb-15 19:50N 38°27' E 015°54'0 0.0
2018-Feb-15 19:26N 38°27' E 015°54'0 0.0
2018-Feb-15 18:56N 38°27' E 015°54'0 0.0
2018-Feb-15 18:26N 38°27' E 015°54'0 0.0
2018-Feb-15 17:50N 38°27' E 015°54'0 0.0
2018-Feb-15 17:14N 38°27' E 015°54'0 0.0
2018-Feb-15 16:02N 38°27' E 015°54'0 0.0
2018-Feb-15 15:44N 38°27' E 015°54'0 0.0
2018-Feb-15 15:26N 38°27' E 015°54'0 0.0
2018-Feb-15 14:50N 38°27' E 015°54'0 0.0
2018-Feb-15 14:20N 38°27' E 015°54'0 0.0
2018-Feb-15 13:32N 38°27' E 015°54'0 0.1
2018-Feb-15 13:26N 38°27' E 015°54'0 0.0
2018-Feb-15 12:02N 38°27' E 015°54'0 0.0
2018-Feb-15 11:56N 38°27' E 015°54'0 0.0
2018-Feb-15 11:20N 38°27' E 015°54'0 0.0
2018-Feb-15 09:50N 38°27' E 015°54'0 0.0
2018-Feb-15 08:20N 38°27' E 015°54'0 0.0
2018-Feb-15 07:56N 38°27' E 015°54'0 0.0
2018-Feb-15 07:26N 38°27' E 015°54'0 0.0
2018-Feb-15 06:56N 38°27' E 015°54'  
Track history (hours):
 
Tides and Currents Weather Stations Pressure Air Temp Water Temp Dewpoint Dewpoint Depression Visibility Wind Speed Wind Dir Waves Ship Positions

Sealand Illinois

Last reported at 2018-Feb-25 05:16 UTC. Time now 2018-Feb-25 13:53 UTC.
Position N 37°14' W 001°01'.

Length 304 m; draft 13.4 m.

Type: Ship (hazmat cat A). MMSI: 229487000.

Date/timePositionNaut miles runAvg speedWind from/ knotsBaromVisibWave heightAir tempDewpointWater temp
2018-Feb-25 05:16N 37°14' W 001°01'519.3
2018-Feb-25 05:00N 37°18' W 000°56'1019.2
2018-Feb-25 04:30N 37°25' W 000°48'918.7
2018-Feb-25 04:00N 37°31' W 000°39'918.2
2018-Feb-25 03:30N 37°37' W 000°30'918.0
2018-Feb-25 03:00N 37°44' W 000°24'918.0
2018-Feb-25 02:29N 37°52' W 000°18'918.6
2018-Feb-25 02:00N 38°00' W 000°12'8415.2
2018-Feb-24 20:29N 39°24' W 000°15'4 7.6
2018-Feb-24 20:00N 39°26' W 000°19'0 0.3
2018-Feb-24 19:28N 39°26' W 000°20'0 0.0
2018-Feb-24 18:52N 39°26' W 000°20'0 0.0
2018-Feb-24 18:28N 39°26' W 000°20'0 0.0
2018-Feb-24 17:58N 39°26' W 000°20'0 0.0
2018-Feb-24 17:28N 39°26' W 000°20'0 0.0
2018-Feb-24 16:55N 39°26' W 000°20'0 0.0
2018-Feb-24 16:28N 39°26' W 000°20'0 0.0
2018-Feb-24 15:55N 39°26' W 000°20'0 0.0
2018-Feb-24 15:28N 39°26' W 000°20'0 0.0
2018-Feb-24 14:58N 39°26' W 000°20'0 0.0
2018-Feb-24 14:28N 39°26' W 000°20'0 0.0
2018-Feb-24 13:55N 39°26' W 000°20'0 0.0
2018-Feb-24 13:28N 39°26' W 000°20'0 0.0
2018-Feb-24 12:58N 39°26' W 000°20'0 0.0
2018-Feb-24 12:28N 39°26' W 000°20'0 0.0
2018-Feb-24 11:58N 39°26' W 000°20'0 0.0
2018-Feb-24 11:28N 39°26' W 000°20'0 0.0
2018-Feb-24 10:58N 39°26' W 000°20'0 0.0
2018-Feb-24 10:28N 39°26' W 000°20'0 0.0
2018-Feb-24 09:58N 39°26' W 000°20'0 0.0
2018-Feb-24 09:28N 39°26' W 000°20'0 0.0
2018-Feb-24 08:58N 39°26' W 000°20'0 0.0
2018-Feb-24 08:28N 39°26' W 000°20'0 0.0
2018-Feb-24 07:58N 39°26' W 000°20'0 0.0
2018-Feb-24 07:28N 39°26' W 000°20'0 0.0
2018-Feb-24 06:58N 39°26' W 000°20'0 0.0
2018-Feb-24 06:28N 39°26' W 000°20'0 0.0
2018-Feb-24 05:58N 39°26' W 000°20'0 0.0
2018-Feb-24 05:28N 39°26' W 000°20'0 0.0
2018-Feb-24 04:58N 39°26' W 000°20'0 0.0
2018-Feb-24 04:28N 39°26' W 000°20'0 0.0
2018-Feb-24 03:58N 39°26' W 000°20'0 0.0
2018-Feb-24 03:28N 39°26' W 000°20'0 0.0
2018-Feb-24 02:58N 39°26' W 000°20'0 0.0
2018-Feb-24 02:28N 39°26' W 000°20'0 0.0
2018-Feb-24 01:58N 39°26' W 000°20'0 0.0
2018-Feb-24 01:28N 39°26' W 000°20'0 0.0
2018-Feb-24 00:58N 39°26' W 000°20'0 0.0
2018-Feb-24 00:28N 39°26' W 000°20'0 0.8
2018-Feb-24 00:00N 39°26' W 000°19'2 4.5
2018-Feb-23 23:30N 39°25' W 000°16'1 1.3
2018-Feb-23 23:00N 39°25' W 000°15'4 8.2
2018-Feb-23 22:29N 39°25' W 000°10'39415.5
2018-Feb-22 21:02N 43°05' E 007°04'116.5
2018-Feb-22 20:57N 43°06' E 007°06'816.8
2018-Feb-22 20:30N 43°11' E 007°14'817.0
2018-Feb-22 20:00N 43°17' E 007°22'4617.2
2018-Feb-22 17:20N 43°46' E 008°11'617.6
2018-Feb-22 16:59N 43°50' E 008°17'817.4
2018-Feb-22 16:30N 43°57' E 008°25'917.7
2018-Feb-22 16:00N 44°04' E 008°31'918.7
2018-Feb-22 15:30N 44°12' E 008°37'917.4
2018-Feb-22 15:01N 44°21' E 008°42'611.4
2018-Feb-22 14:30N 44°25' E 008°47'1 1.4
2018-Feb-22 13:59N 44°25' E 008°48'0 0.0
2018-Feb-22 13:29N 44°25' E 008°48'0 0.0
2018-Feb-22 12:59N 44°25' E 008°48'0 0.0
2018-Feb-22 12:29N 44°25' E 008°48'0 0.0
2018-Feb-22 11:59N 44°25' E 008°48'0 0.0
2018-Feb-22 11:29N 44°25' E 008°48'0 0.0
2018-Feb-22 10:59N 44°25' E 008°48'0 0.0
2018-Feb-22 10:29N 44°25' E 008°48'0 0.0
2018-Feb-22 09:59N 44°25' E 008°48'0 0.0
2018-Feb-22 09:29N 44°25' E 008°48'0 0.0
2018-Feb-22 08:56N 44°25' E 008°48'0 0.0
2018-Feb-22 08:29N 44°25' E 008°48'0 0.0
2018-Feb-22 07:59N 44°25' E 008°48'0 0.0
2018-Feb-22 07:29N 44°25' E 008°48'0 0.0
2018-Feb-22 06:59N 44°25' E 008°48'0 0.0
2018-Feb-22 06:29N 44°25' E 008°48'0 0.0
2018-Feb-22 05:59N 44°25' E 008°48'0 0.0
2018-Feb-22 05:29N 44°25' E 008°48'0 0.0
2018-Feb-22 04:59N 44°25' E 008°48'0 0.0
2018-Feb-22 04:29N 44°25' E 008°48'0 0.0
2018-Feb-22 03:59N 44°25' E 008°48'0 0.0
2018-Feb-22 03:29N 44°25' E 008°48'0 0.0
2018-Feb-22 02:56N 44°25' E 008°48'0 0.0
2018-Feb-22 02:29N 44°25' E 008°48'0 0.0
2018-Feb-22 01:59N 44°25' E 008°48'0 0.0
2018-Feb-22 01:29N 44°25' E 008°48'0 0.0
2018-Feb-22 00:59N 44°25' E 008°48'0 0.0
2018-Feb-22 00:29N 44°25' E 008°48'0 0.0
2018-Feb-21 23:59N 44°25' E 008°48'0 0.0
2018-Feb-21 23:29N 44°25' E 008°48'0 0.0
2018-Feb-21 22:59N 44°25' E 008°48'0 0.0
2018-Feb-21 22:29N 44°25' E 008°48'0 0.0
2018-Feb-21 21:59N 44°25' E 008°48'0 0.0
2018-Feb-21 21:29N 44°25' E 008°48'0 0.0
2018-Feb-21 20:59N 44°25' E 008°48'0 0.5
2018-Feb-21 20:31N 44°25' E 008°47'3 5.3
2018-Feb-21 20:00N 44°23' E 008°44'3 5.3
2018-Feb-21 19:30N 44°21' E 008°43'3 6.5
2018-Feb-21 19:00N 44°18' E 008°44'3 5.2
2018-Feb-21 18:30N 44°15' E 008°44'1 1.2
2018-Feb-21 18:00N 44°15' E 008°44'1 1.5
2018-Feb-21 17:30N 44°15' E 008°45'1 1.6
2018-Feb-21 17:00N 44°16' E 008°45'1 1.7
2018-Feb-21 16:30N 44°17' E 008°46'1 1.6
2018-Feb-21 16:00N 44°18' E 008°46'1 1.3
2018-Feb-21 15:30N 44°18' E 008°47'3 5.9
2018-Feb-21 15:00N 44°16' E 008°50'611.6
2018-Feb-21 14:30N 44°13' E 008°56'611.9
2018-Feb-21 14:00N 44°08' E 009°01'611.9
2018-Feb-21 13:30N 44°03' E 009°06'612.2
2018-Feb-21 13:00N 43°59' E 009°13'612.4
2018-Feb-21 12:30N 43°55' E 009°20'611.7
2018-Feb-21 12:00N 43°52' E 009°26'611.4
2018-Feb-21 11:30N 43°48' E 009°32'611.4
2018-Feb-21 11:00N 43°45' E 009°39'611.8
2018-Feb-21 10:30N 43°41' E 009°45'611.8
2018-Feb-21 10:00N 43°37' E 009°50'611.6
2018-Feb-21 09:30N 43°33' E 009°56'611.8
2018-Feb-21 09:00N 43°31' E 010°04'511.0
2018-Feb-21 08:30N 43°30' E 010°12'4 8.7
2018-Feb-21 08:00N 43°32' E 010°17'2 4.3
2018-Feb-21 07:30N 43°34' E 010°18'0 0.8
2018-Feb-21 07:00N 43°35' E 010°18'0 0.0
2018-Feb-21 06:30N 43°35' E 010°18'0 0.0
2018-Feb-21 05:54N 43°35' E 010°18'0 0.0
2018-Feb-21 05:30N 43°35' E 010°18'0 0.0
2018-Feb-21 05:00N 43°35' E 010°18'0 0.0
2018-Feb-21 04:27N 43°35' E 010°18'0 0.0
2018-Feb-21 04:00N 43°35' E 010°18'0 0.0
2018-Feb-21 03:30N 43°35' E 010°18'0 0.0
2018-Feb-21 03:00N 43°35' E 010°18'0 0.0
2018-Feb-21 02:30N 43°35' E 010°18'0 0.0
2018-Feb-21 02:00N 43°35' E 010°18'0 0.0
2018-Feb-21 01:30N 43°35' E 010°18'0 0.0
2018-Feb-21 01:00N 43°35' E 010°18'0 0.0
2018-Feb-21 00:30N 43°35' E 010°18'0 0.0
2018-Feb-21 00:00N 43°35' E 010°18'0 0.0
2018-Feb-20 23:30N 43°35' E 010°18'0 0.0
2018-Feb-20 23:00N 43°35' E 010°18'0 0.0
2018-Feb-20 22:30N 43°35' E 010°18'0 0.0
2018-Feb-20 21:54N 43°35' E 010°18'0 0.0
2018-Feb-20 21:27N 43°35' E 010°18'0 0.0
2018-Feb-20 21:00N 43°35' E 010°18'0 0.0
2018-Feb-20 20:30N 43°35' E 010°18'0 0.0
2018-Feb-20 19:54N 43°35' E 010°18'0 0.0
2018-Feb-20 19:27N 43°35' E 010°18'0 0.0
2018-Feb-20 19:00N 43°35' E 010°18'0 0.0
2018-Feb-20 18:30N 43°35' E 010°18'0 0.0
2018-Feb-20 18:00N 43°35' E 010°18'0 0.0
2018-Feb-20 17:30N 43°35' E 010°18'0 0.0
2018-Feb-20 17:00N 43°35' E 010°18'0 0.0
2018-Feb-20 16:30N 43°35' E 010°18'0 0.0
2018-Feb-20 16:00N 43°35' E 010°18'0 0.0
2018-Feb-20 15:30N 43°35' E 010°18'0 0.0
2018-Feb-20 15:00N 43°35' E 010°18'0 0.0
2018-Feb-20 14:27N 43°35' E 010°18'0 0.0
2018-Feb-20 13:57N 43°35' E 010°18'0 0.0
2018-Feb-20 13:30N 43°35' E 010°18'0 0.0
2018-Feb-20 13:00N 43°35' E 010°18'0 0.0
2018-Feb-20 12:30N 43°35' E 010°18'0 0.0
2018-Feb-20 12:00N 43°35' E 010°18'0 0.0
2018-Feb-20 11:30N 43°35' E 010°18'0 0.0
2018-Feb-20 10:54N 43°35' E 010°18'0 0.0
2018-Feb-20 10:30N 43°35' E 010°18'0 0.0
2018-Feb-20 10:00N 43°35' E 010°18'0 0.0
2018-Feb-20 09:30N 43°35' E 010°18'1 2.3
2018-Feb-20 09:00N 43°33' E 010°18'2 4.4
2018-Feb-20 08:30N 43°32' E 010°16'1 2.6
2018-Feb-20 08:00N 43°31' E 010°15'4 8.2
2018-Feb-20 07:30N 43°29' E 010°09'4 7.6
2018-Feb-20 07:00N 43°28' E 010°04'1 1.5
2018-Feb-20 06:30N 43°28' E 010°05'1 1.7
2018-Feb-20 06:00N 43°27' E 010°06'1 1.6
2018-Feb-20 05:30N 43°27' E 010°07'1 1.4
2018-Feb-20 05:00N 43°27' E 010°08'1 1.3
2018-Feb-20 04:30N 43°27' E 010°09'1 1.1
2018-Feb-20 04:00N 43°27' E 010°10'0 1.0
2018-Feb-20 03:30N 43°27' E 010°11'0 0.8
2018-Feb-20 03:00N 43°27' E 010°11'3 5.2
2018-Feb-20 02:30N 43°29' E 010°08'5 9.8
2018-Feb-20 02:00N 43°31' E 010°02'510.3
2018-Feb-20 01:30N 43°33' E 009°55'510.7
2018-Feb-20 01:00N 43°38' E 009°51'611.1
2018-Feb-20 00:30N 43°44' E 009°51'611.1
2018-Feb-20 00:00N 43°49' E 009°52'611.4
2018-Feb-19 23:30N 43°55' E 009°52'612.1
2018-Feb-19 23:00N 44°01' E 009°52'5 9.3
2018-Feb-19 22:30N 44°05' E 009°51'1 2.4
2018-Feb-19 22:00N 44°06' E 009°51'0 0.0
2018-Feb-19 21:21N 44°06' E 009°51'0 0.0
2018-Feb-19 20:51N 44°06' E 009°51'0 0.0
2018-Feb-19 20:30N 44°06' E 009°51'0 0.0
2018-Feb-19 20:00N 44°06' E 009°51'0 0.0
2018-Feb-19 19:30N 44°06' E 009°51'0 0.1
2018-Feb-19 19:00N 44°06' E 009°51'0 0.1
2018-Feb-19 18:30N 44°06' E 009°51'0 0.0
2018-Feb-19 18:00N 44°06' E 009°51'0 0.0
2018-Feb-19 17:30N 44°06' E 009°51'0 0.0
2018-Feb-19 17:00N 44°06' E 009°51'0 0.0
2018-Feb-19 16:30N 44°06' E 009°51'0 0.0
2018-Feb-19 16:00N 44°06' E 009°51'0 0.0
2018-Feb-19 15:30N 44°06' E 009°51'0 0.0
2018-Feb-19 14:57N 44°06' E 009°51'0 0.0
2018-Feb-19 14:30N 44°06' E 009°51'0 0.0
2018-Feb-19 13:57N 44°06' E 009°51'0 0.0
2018-Feb-19 13:30N 44°06' E 009°51'0 0.0
2018-Feb-19 12:57N 44°06' E 009°51'0 0.0
2018-Feb-19 12:30N 44°06' E 009°51'0 0.0
2018-Feb-19 12:00N 44°06' E 009°51'0 0.0
2018-Feb-19 11:30N 44°06' E 009°51'0 0.0
2018-Feb-19 11:00N 44°06' E 009°51'0 0.0
2018-Feb-19 10:30N 44°06' E 009°51'0 0.0
2018-Feb-19 10:00N 44°06' E 009°51'0 0.0
2018-Feb-19 09:30N 44°06' E 009°51'0 0.0
2018-Feb-19 09:00N 44°06' E 009°51'0 0.0
2018-Feb-19 08:24N 44°06' E 009°51'0 0.0
2018-Feb-19 08:00N 44°06' E 009°51'0 0.0
2018-Feb-19 07:30N 44°06' E 009°51'0 0.0
2018-Feb-19 07:00N 44°06' E 009°51'0 0.0
2018-Feb-19 06:30N 44°06' E 009°51'0 0.0
2018-Feb-19 06:00N 44°06' E 009°51'0 0.0
2018-Feb-19 05:30N 44°06' E 009°51'0 0.0
2018-Feb-19 05:00N 44°06' E 009°51'0 0.0
2018-Feb-19 04:30N 44°06' E 009°51'0 0.0
2018-Feb-19 04:00N 44°06' E 009°51'0 0.0
2018-Feb-19 03:27N 44°06' E 009°51'0 0.0
2018-Feb-19 03:00N 44°06' E 009°51'0 0.0
2018-Feb-19 02:30N 44°06' E 009°51'0 0.0
2018-Feb-19 02:00N 44°06' E 009°51'0 0.0
2018-Feb-19 01:30N 44°06' E 009°51'0 0.0
2018-Feb-19 01:00N 44°06' E 009°51'0 0.0
2018-Feb-19 00:30N 44°06' E 009°51'0 0.0
2018-Feb-19 00:00N 44°06' E 009°51'0 0.0
2018-Feb-18 23:30N 44°06' E 009°51'0 0.0
2018-Feb-18 23:00N 44°06' E 009°51'0 0.0
2018-Feb-18 22:30N 44°06' E 009°51'0 0.0
2018-Feb-18 21:57N 44°06' E 009°51'0 0.0
2018-Feb-18 21:30N 44°06' E 009°51'0 0.8
2018-Feb-18 21:00N 44°06' E 009°51'3 6.5
2018-Feb-18 20:30N 44°03' E 009°52'2 3.3
2018-Feb-18 20:00N 44°02' E 009°54'3 5.7
2018-Feb-18 19:30N 43°60' E 009°57'0 0.6
2018-Feb-18 19:00N 44°00' E 009°57'0 0.7
2018-Feb-18 18:30N 44°00' E 009°57'0 0.6
2018-Feb-18 18:00N 44°00' E 009°57'1 2.3
2018-Feb-18 17:30N 43°59' E 009°56'4 7.9
2018-Feb-18 17:00N 43°55' E 009°54'611.3
2018-Feb-18 16:30N 43°50' E 009°51'611.5
2018-Feb-18 16:00N 43°45' E 009°49'612.0
2018-Feb-18 15:30N 43°39' E 009°46'612.0
2018-Feb-18 15:00N 43°33' E 009°45'612.0
2018-Feb-18 14:30N 43°27' E 009°44'612.2
2018-Feb-18 14:00N 43°21' E 009°47'612.1
2018-Feb-18 13:30N 43°16' E 009°51'612.0
2018-Feb-18 13:00N 43°10' E 009°54'612.1
2018-Feb-18 12:30N 43°05' E 009°58'714.8
2018-Feb-18 12:00N 42°58' E 009°59'5217.5
2018-Feb-18 09:02N 42°07' E 010°18'195 7.6
2018-Feb-17 07:21N 40°50' E 014°17'0 0.0
2018-Feb-17 06:54N 40°50' E 014°17'0 0.0
2018-Feb-16 20:45N 40°50' E 014°17'0 0.0
2018-Feb-16 20:18N 40°50' E 014°17'0 0.0
2018-Feb-16 19:51N 40°50' E 014°17'0 0.0
2018-Feb-16 19:21N 40°50' E 014°17'0 0.0
2018-Feb-16 18:51N 40°50' E 014°17'0 0.0
2018-Feb-16 18:30N 40°50' E 014°17'0 0.0
2018-Feb-16 17:51N 40°50' E 014°17'0 0.0
2018-Feb-16 17:21N 40°50' E 014°17'0 0.1
2018-Feb-16 16:55N 40°50' E 014°17'1 1.6
2018-Feb-16 16:30N 40°50' E 014°17'2 3.2
2018-Feb-16 16:01N 40°48' E 014°17'4 7.1
2018-Feb-16 15:30N 40°45' E 014°14'611.7
2018-Feb-16 15:00N 40°40' E 014°11'712.9
2018-Feb-16 14:30N 40°34' E 014°06'1511.9
2018-Feb-16 13:15N 40°21' E 014°14'6212.7
2018-Feb-16 08:20N 39°28' E 014°58'612.7
2018-Feb-16 07:53N 39°24' E 015°03'4812.6
2018-Feb-16 04:05N 38°43' E 015°35'312.7
2018-Feb-16 03:50N 38°41' E 015°37'712.6
2018-Feb-16 03:18N 38°35' E 015°43'412.8
2018-Feb-16 02:57N 38°32' E 015°46'612.7
2018-Feb-16 02:29N 38°28' E 015°52'2 3.8
2018-Feb-16 01:57N 38°27' E 015°54'0 0.0
2018-Feb-16 01:27N 38°27' E 015°54'0 0.0
2018-Feb-15 23:57N 38°27' E 015°54'0 0.0
2018-Feb-15 23:27N 38°27' E 015°54'0 0.0
2018-Feb-15 22:56N 38°27' E 015°54'0 0.0
2018-Feb-15 22:26N 38°27' E 015°54'0 0.0
2018-Feb-15 21:50N 38°27' E 015°54'0 0.0
2018-Feb-15 21:14N 38°27' E 015°54'0 0.1
2018-Feb-15 20:56N 38°27' E 015°54'0 0.0
2018-Feb-15 20:26N 38°27' E 015°54'0 0.0
2018-Feb-15 19:50N 38°27' E 015°54'0 0.0
2018-Feb-15 19:26N 38°27' E 015°54'0 0.0
2018-Feb-15 18:56N 38°27' E 015°54'0 0.0
2018-Feb-15 18:26N 38°27' E 015°54'0 0.0
2018-Feb-15 17:50N 38°27' E 015°54'0 0.0
2018-Feb-15 17:14N 38°27' E 015°54'0 0.0
2018-Feb-15 16:02N 38°27' E 015°54'0 0.0
2018-Feb-15 15:44N 38°27' E 015°54'0 0.0
2018-Feb-15 15:26N 38°27' E 015°54'0 0.0
2018-Feb-15 14:50N 38°27' E 015°54'0 0.0
2018-Feb-15 14:20N 38°27' E 015°54'0 0.0
2018-Feb-15 13:32N 38°27' E 015°54'0 0.1
2018-Feb-15 13:26N 38°27' E 015°54'0 0.0
2018-Feb-15 12:02N 38°27' E 015°54'0 0.0
2018-Feb-15 11:56N 38°27' E 015°54'0 0.0
2018-Feb-15 11:20N 38°27' E 015°54'0 0.0
2018-Feb-15 09:50N 38°27' E 015°54'0 0.0
2018-Feb-15 08:20N 38°27' E 015°54'0 0.0
2018-Feb-15 07:56N 38°27' E 015°54'0 0.0
2018-Feb-15 07:26N 38°27' E 015°54'0 0.0
2018-Feb-15 06:56N 38°27' E 015°54'  

Dump ship's entire track history